NKS1347 KFLL-KBOS
Flight info
| Callsign | NKS1347 |
|---|---|
| Flight time | 3h 20m |
| Altitude | 37000 |
| Route | FEALX2 ETECK GRUBR Y299 SEELO WAALT Q131 EARZZ JAMIE CONFR Q133 JFK ROBUC3 |
| Aircraft | A320/M-SDE3FGHIRWY/LB1 |
Departure
| Time | 2026-05-06 22:18 |
|---|---|
| Airport | Fort Lauderdale Hollywood International Airport (KFLL) |
Arrival
| Time | 2026-05-07 01:39 |
|---|---|
| Airport | Boston Logan International Airport (KBOS) |
| Time | Latitude | Longitude | Altitude | Speed | Heading |
|---|---|---|---|---|---|
| 2026-05-06 21:58 | 26.06880 | -80.14341 | -3 ft | 0 kts | 0° |
| 2026-05-06 22:09 | 26.06869 | -80.14341 | 17 ft | 4 kts | 0° |
| 2026-05-06 22:09 | 26.06846 | -80.14342 | 18 ft | 2 kts | 0° |
| 2026-05-06 22:09 | 26.06824 | -80.14338 | 17 ft | 4 kts | 314° |
| 2026-05-06 22:09 | 26.06818 | -80.14317 | 18 ft | 4 kts | 270° |
| 2026-05-06 22:10 | 26.06818 | -80.14307 | 17 ft | 0 kts | 270° |
| 2026-05-06 22:13 | 26.06818 | -80.14308 | 16 ft | 1 kts | 270° |
| 2026-05-06 22:13 | 26.06818 | -80.14333 | 16 ft | 7 kts | 270° |
| 2026-05-06 22:13 | 26.06818 | -80.14392 | 16 ft | 9 kts | 270° |
| 2026-05-06 22:13 | 26.06818 | -80.14466 | 16 ft | 11 kts | 270° |
| 2026-05-06 22:14 | 26.06815 | -80.14552 | 15 ft | 12 kts | 256° |
| 2026-05-06 22:14 | 26.06765 | -80.14628 | 15 ft | 13 kts | 260° |
| 2026-05-06 22:14 | 26.06766 | -80.14734 | 15 ft | 15 kts | 270° |
| 2026-05-06 22:14 | 26.06766 | -80.14853 | 15 ft | 16 kts | 270° |
| 2026-05-06 22:15 | 26.06767 | -80.14986 | 16 ft | 18 kts | 270° |
| 2026-05-06 22:15 | 26.06762 | -80.15107 | 16 ft | 13 kts | 248° |
| 2026-05-06 22:15 | 26.06701 | -80.15162 | 21 ft | 10 kts | 241° |
| 2026-05-06 22:15 | 26.06695 | -80.15243 | 20 ft | 12 kts | 270° |
| 2026-05-06 22:16 | 26.06696 | -80.15363 | 16 ft | 17 kts | 270° |
| 2026-05-06 22:16 | 26.06697 | -80.15501 | 16 ft | 19 kts | 270° |
| 2026-05-06 22:16 | 26.06698 | -80.15652 | 16 ft | 20 kts | 270° |
| 2026-05-06 22:16 | 26.06696 | -80.15781 | 16 ft | 12 kts | 264° |
| 2026-05-06 22:17 | 26.06629 | -80.15817 | 17 ft | 12 kts | 169° |
| 2026-05-06 22:17 | 26.06590 | -80.15799 | 18 ft | 5 kts | 129° |
| 2026-05-06 22:17 | 26.06588 | -80.15757 | 19 ft | 7 kts | 90° |
| 2026-05-06 22:17 | 26.06589 | -80.15623 | 23 ft | 39 kts | 89° |
| 2026-05-06 22:18 | 26.06583 | -80.15043 | 19 ft | 107 kts | 90° |
| 2026-05-06 22:18 | 26.06577 | -80.14032 | 82 ft | 152 kts | 91° |
| 2026-05-06 22:18 | 26.06557 | -80.12836 | 677 ft | 152 kts | 91° |
| 2026-05-06 22:18 | 26.06563 | -80.11670 | 1282 ft | 152 kts | 90° |
| 2026-05-06 22:19 | 26.06572 | -80.10418 | 1486 ft | 171 kts | 88° |
| 2026-05-06 22:19 | 26.06601 | -80.09021 | 1631 ft | 191 kts | 88° |
| 2026-05-06 22:19 | 26.06634 | -80.07461 | 1743 ft | 214 kts | 89° |
| 2026-05-06 22:19 | 26.06663 | -80.05702 | 2036 ft | 239 kts | 89° |
| 2026-05-06 22:20 | 26.06688 | -80.03772 | 2534 ft | 256 kts | 89° |
| 2026-05-06 22:20 | 26.06751 | -80.01764 | 3286 ft | 263 kts | 81° |
| 2026-05-06 22:20 | 26.07428 | -79.99861 | 4034 ft | 270 kts | 53° |
| 2026-05-06 22:20 | 26.08603 | -79.98239 | 4841 ft | 275 kts | 49° |
| 2026-05-06 22:21 | 26.09838 | -79.96587 | 5663 ft | 279 kts | 49° |
| 2026-05-06 22:21 | 26.11081 | -79.94925 | 6509 ft | 281 kts | 50° |
| 2026-05-06 22:21 | 26.12329 | -79.93247 | 7313 ft | 281 kts | 50° |
| 2026-05-06 22:21 | 26.13581 | -79.91557 | 8130 ft | 282 kts | 50° |
| 2026-05-06 22:22 | 26.14823 | -79.89876 | 8911 ft | 284 kts | 49° |
| 2026-05-06 22:22 | 26.16076 | -79.88165 | 9668 ft | 286 kts | 51° |
| 2026-05-06 22:22 | 26.17290 | -79.86387 | 10348 ft | 289 kts | 52° |
| 2026-05-06 22:22 | 26.18498 | -79.84534 | 10596 ft | 309 kts | 53° |
| 2026-05-06 22:23 | 26.19794 | -79.82516 | 10727 ft | 331 kts | 53° |
| 2026-05-06 22:23 | 26.21157 | -79.80387 | 11051 ft | 343 kts | 53° |
| 2026-05-06 22:23 | 26.22552 | -79.78217 | 11596 ft | 346 kts | 53° |
| 2026-05-06 22:23 | 26.23972 | -79.76024 | 12199 ft | 348 kts | 52° |
| 2026-05-06 22:24 | 26.25395 | -79.73838 | 12805 ft | 350 kts | 52° |
| 2026-05-06 22:24 | 26.26836 | -79.71630 | 13398 ft | 352 kts | 52° |
| 2026-05-06 22:24 | 26.28280 | -79.69417 | 13980 ft | 354 kts | 52° |
| 2026-05-06 22:24 | 26.29814 | -79.67258 | 14475 ft | 355 kts | 45° |
| 2026-05-06 22:25 | 26.31537 | -79.65263 | 14938 ft | 359 kts | 44° |
| 2026-05-06 22:25 | 26.33286 | -79.63254 | 15395 ft | 363 kts | 44° |
| 2026-05-06 22:25 | 26.35057 | -79.61223 | 15837 ft | 366 kts | 43° |
| 2026-05-06 22:25 | 26.36822 | -79.59201 | 16286 ft | 370 kts | 43° |
| 2026-05-06 22:26 | 26.38627 | -79.57132 | 16725 ft | 374 kts | 43° |
| 2026-05-06 22:26 | 26.40450 | -79.55038 | 17167 ft | 378 kts | 43° |
| 2026-05-06 22:26 | 26.42288 | -79.52917 | 17605 ft | 381 kts | 43° |
| 2026-05-06 22:26 | 26.44142 | -79.50773 | 18039 ft | 385 kts | 43° |
| 2026-05-06 22:27 | 26.46014 | -79.48611 | 18462 ft | 389 kts | 43° |
| 2026-05-06 22:27 | 26.47906 | -79.46428 | 18850 ft | 392 kts | 43° |
| 2026-05-06 22:27 | 26.49813 | -79.44228 | 19234 ft | 396 kts | 42° |
| 2026-05-06 22:27 | 26.51708 | -79.42038 | 19625 ft | 399 kts | 42° |
| 2026-05-06 22:28 | 26.53640 | -79.39805 | 20043 ft | 401 kts | 41° |
| 2026-05-06 22:28 | 26.55700 | -79.37723 | 20446 ft | 399 kts | 32° |
| 2026-05-06 22:28 | 26.58031 | -79.36050 | 20844 ft | 398 kts | 27° |
| 2026-05-06 22:28 | 26.60414 | -79.34445 | 21248 ft | 401 kts | 27° |
| 2026-05-06 22:29 | 26.62805 | -79.32824 | 21640 ft | 403 kts | 27° |
| 2026-05-06 22:29 | 26.65213 | -79.31185 | 22031 ft | 406 kts | 27° |
| 2026-05-06 22:29 | 26.67630 | -79.29536 | 22410 ft | 408 kts | 27° |
| 2026-05-06 22:29 | 26.70063 | -79.27876 | 22787 ft | 411 kts | 26° |
| 2026-05-06 22:30 | 26.72509 | -79.26206 | 23157 ft | 413 kts | 26° |
| 2026-05-06 22:30 | 26.74976 | -79.24523 | 23526 ft | 416 kts | 26° |
| 2026-05-06 22:30 | 26.77425 | -79.22853 | 23846 ft | 418 kts | 26° |
| 2026-05-06 22:30 | 26.79920 | -79.21155 | 24138 ft | 421 kts | 26° |
| 2026-05-06 22:31 | 26.82430 | -79.19446 | 24437 ft | 423 kts | 26° |
| 2026-05-06 22:31 | 26.84954 | -79.17723 | 24737 ft | 425 kts | 26° |
| 2026-05-06 22:31 | 26.87496 | -79.15985 | 25038 ft | 428 kts | 26° |
| 2026-05-06 22:31 | 26.90042 | -79.14241 | 25328 ft | 430 kts | 26° |
| 2026-05-06 22:32 | 26.92567 | -79.12513 | 25627 ft | 432 kts | 26° |
| 2026-05-06 22:32 | 26.95138 | -79.10754 | 25925 ft | 434 kts | 26° |
| 2026-05-06 22:32 | 26.97731 | -79.08981 | 26219 ft | 436 kts | 26° |
| 2026-05-06 22:32 | 27.00327 | -79.07205 | 26513 ft | 438 kts | 26° |
| 2026-05-06 22:33 | 27.02942 | -79.05414 | 26802 ft | 441 kts | 26° |
| 2026-05-06 22:33 | 27.05565 | -79.03613 | 27139 ft | 442 kts | 26° |
| 2026-05-06 22:33 | 27.08199 | -79.01804 | 27422 ft | 445 kts | 26° |
| 2026-05-06 22:33 | 27.10845 | -78.99988 | 27713 ft | 447 kts | 26° |
| 2026-05-06 22:34 | 27.13511 | -78.98155 | 28015 ft | 450 kts | 26° |
| 2026-05-06 22:34 | 27.16157 | -78.96338 | 28306 ft | 452 kts | 26° |
| 2026-05-06 22:34 | 27.18883 | -78.94464 | 28617 ft | 454 kts | 26° |
| 2026-05-06 22:34 | 27.21538 | -78.92636 | 29036 ft | 453 kts | 26° |
| 2026-05-06 22:35 | 27.24223 | -78.90781 | 29476 ft | 452 kts | 26° |
| 2026-05-06 22:35 | 27.26900 | -78.88931 | 29914 ft | 451 kts | 25° |
| 2026-05-06 22:35 | 27.29577 | -78.87086 | 30322 ft | 451 kts | 25° |
| 2026-05-06 22:35 | 27.32253 | -78.85241 | 30700 ft | 450 kts | 25° |
| 2026-05-06 22:36 | 27.34922 | -78.83401 | 31085 ft | 449 kts | 25° |
| 2026-05-06 22:36 | 27.37587 | -78.81577 | 31474 ft | 446 kts | 22° |
| 2026-05-06 22:36 | 27.40375 | -78.80139 | 31859 ft | 437 kts | 13° |
| 2026-05-06 22:36 | 27.43281 | -78.79279 | 32258 ft | 428 kts | 3° |
| 2026-05-06 22:37 | 27.46225 | -78.78843 | 32663 ft | 425 kts | 1° |
| 2026-05-06 22:37 | 27.49129 | -78.78431 | 33079 ft | 424 kts | 1° |
| 2026-05-06 22:37 | 27.52048 | -78.78009 | 33505 ft | 422 kts | 1° |
| 2026-05-06 22:37 | 27.54958 | -78.77584 | 33931 ft | 421 kts | 1° |
| 2026-05-06 22:38 | 27.57864 | -78.77154 | 34305 ft | 420 kts | 1° |
| 2026-05-06 22:38 | 27.60759 | -78.76726 | 34653 ft | 418 kts | 1° |
| 2026-05-06 22:38 | 27.63650 | -78.76300 | 34986 ft | 418 kts | 1° |
| 2026-05-06 22:38 | 27.66531 | -78.75875 | 35292 ft | 417 kts | 1° |
| 2026-05-06 22:39 | 27.69363 | -78.75460 | 35597 ft | 416 kts | 1° |
| 2026-05-06 22:39 | 27.72231 | -78.75042 | 35897 ft | 415 kts | 1° |
| 2026-05-06 22:39 | 27.75092 | -78.74624 | 36195 ft | 414 kts | 0° |
| 2026-05-06 22:39 | 27.77953 | -78.74203 | 36486 ft | 414 kts | 1° |
| 2026-05-06 22:40 | 27.80807 | -78.73782 | 36771 ft | 413 kts | 0° |
| 2026-05-06 22:40 | 27.83657 | -78.73364 | 37016 ft | 413 kts | 0° |
| 2026-05-06 22:40 | 27.89401 | -78.72531 | 37090 ft | 421 kts | 0° |
| 2026-05-06 22:41 | 27.98183 | -78.71234 | 37092 ft | 425 kts | 0° |
| 2026-05-06 22:42 | 28.04012 | -78.70371 | 37092 ft | 425 kts | 0° |
| 2026-05-06 22:42 | 28.09889 | -78.69497 | 37092 ft | 425 kts | 0° |
| 2026-05-06 22:43 | 28.15761 | -78.68628 | 37097 ft | 425 kts | 0° |
| 2026-05-06 22:43 | 28.21640 | -78.67763 | 37120 ft | 425 kts | 0° |
| 2026-05-06 22:44 | 28.27503 | -78.66894 | 37115 ft | 425 kts | 0° |
| 2026-05-06 22:44 | 28.33325 | -78.66028 | 37112 ft | 424 kts | 0° |
| 2026-05-06 22:45 | 28.39181 | -78.65158 | 37109 ft | 424 kts | 0° |
| 2026-05-06 22:45 | 28.45040 | -78.64285 | 37107 ft | 424 kts | 0° |
| 2026-05-06 22:46 | 28.50895 | -78.63412 | 37120 ft | 424 kts | 360° |
| 2026-05-06 22:46 | 28.56744 | -78.62540 | 37114 ft | 424 kts | 360° |
| 2026-05-06 22:47 | 28.62596 | -78.61669 | 37109 ft | 424 kts | 360° |
| 2026-05-06 22:47 | 28.68438 | -78.60799 | 37107 ft | 424 kts | 360° |
| 2026-05-06 22:48 | 28.74255 | -78.59933 | 37105 ft | 424 kts | 360° |
| 2026-05-06 22:48 | 28.80105 | -78.59054 | 37120 ft | 424 kts | 359° |
| 2026-05-06 22:49 | 28.85947 | -78.58182 | 37117 ft | 423 kts | 359° |
| 2026-05-06 22:49 | 28.91805 | -78.57304 | 37115 ft | 423 kts | 359° |
| 2026-05-06 22:50 | 28.97641 | -78.56424 | 37109 ft | 423 kts | 359° |
| 2026-05-06 22:50 | 29.03493 | -78.55538 | 37110 ft | 423 kts | 359° |
| 2026-05-06 22:51 | 29.09303 | -78.54669 | 37131 ft | 423 kts | 359° |
| 2026-05-06 22:51 | 29.15146 | -78.53794 | 37123 ft | 423 kts | 359° |
| 2026-05-06 22:52 | 29.20992 | -78.52907 | 37120 ft | 423 kts | 359° |
| 2026-05-06 22:52 | 29.26827 | -78.52025 | 37115 ft | 423 kts | 359° |
| 2026-05-06 22:53 | 29.32625 | -78.51146 | 37110 ft | 423 kts | 359° |
| 2026-05-06 22:53 | 29.38415 | -78.50933 | 37122 ft | 414 kts | 351° |
| 2026-05-06 22:54 | 29.44170 | -78.50986 | 37120 ft | 413 kts | 351° |
| 2026-05-06 22:54 | 29.49924 | -78.51057 | 37116 ft | 413 kts | 351° |
| 2026-05-06 22:55 | 29.55679 | -78.51122 | 37112 ft | 413 kts | 351° |
| 2026-05-06 22:55 | 29.61431 | -78.51186 | 37135 ft | 413 kts | 351° |
| 2026-05-06 22:56 | 29.67182 | -78.51244 | 37132 ft | 413 kts | 351° |
| 2026-05-06 22:56 | 29.72932 | -78.51299 | 37125 ft | 413 kts | 351° |
| 2026-05-06 22:57 | 29.77700 | -78.51353 | 37121 ft | 412 kts | 351° |
| 2026-05-06 22:57 | 29.84376 | -78.51424 | 37116 ft | 412 kts | 351° |
| 2026-05-06 22:58 | 29.89179 | -78.51476 | 37115 ft | 412 kts | 351° |
| 2026-05-06 22:58 | 29.94920 | -78.51535 | 37136 ft | 412 kts | 351° |
| 2026-05-06 22:59 | 30.00656 | -78.51594 | 37120 ft | 412 kts | 351° |
| 2026-05-06 22:59 | 30.06387 | -78.51648 | 37114 ft | 412 kts | 351° |
| 2026-05-06 23:00 | 30.12083 | -78.51708 | 37084 ft | 411 kts | 351° |
| 2026-05-06 23:00 | 30.17847 | -78.51778 | 37115 ft | 411 kts | 351° |
| 2026-05-06 23:01 | 30.23548 | -78.51845 | 37115 ft | 411 kts | 351° |
| 2026-05-06 23:01 | 30.29274 | -78.51905 | 37109 ft | 412 kts | 351° |
| 2026-05-06 23:02 | 30.34999 | -78.51967 | 37109 ft | 412 kts | 351° |
| 2026-05-06 23:02 | 30.40731 | -78.52026 | 37105 ft | 412 kts | 351° |
| 2026-05-06 23:03 | 30.46531 | -78.51323 | 37104 ft | 421 kts | 358° |
| 2026-05-06 23:03 | 30.52338 | -78.50373 | 37107 ft | 421 kts | 358° |
| 2026-05-06 23:04 | 30.58106 | -78.49433 | 37102 ft | 421 kts | 358° |
| 2026-05-06 23:04 | 30.63914 | -78.48494 | 37109 ft | 421 kts | 358° |
| 2026-05-06 23:05 | 30.69714 | -78.47554 | 37099 ft | 421 kts | 358° |
| 2026-05-06 23:05 | 30.75522 | -78.46612 | 37127 ft | 421 kts | 358° |
| 2026-05-06 23:06 | 30.81333 | -78.45668 | 37120 ft | 421 kts | 358° |
| 2026-05-06 23:06 | 30.87101 | -78.44727 | 37116 ft | 421 kts | 358° |
| 2026-05-06 23:07 | 30.92902 | -78.43781 | 37111 ft | 421 kts | 358° |
| 2026-05-06 23:07 | 30.98714 | -78.42829 | 37109 ft | 421 kts | 358° |
| 2026-05-06 23:08 | 31.04522 | -78.41881 | 37117 ft | 421 kts | 358° |
| 2026-05-06 23:08 | 31.10327 | -78.40927 | 37111 ft | 421 kts | 358° |
| 2026-05-06 23:09 | 31.16098 | -78.39979 | 37106 ft | 421 kts | 358° |
| 2026-05-06 23:09 | 31.21896 | -78.39036 | 37104 ft | 421 kts | 358° |
| 2026-05-06 23:10 | 31.27694 | -78.38079 | 37121 ft | 421 kts | 358° |
| 2026-05-06 23:10 | 31.33503 | -78.37120 | 37115 ft | 421 kts | 357° |
| 2026-05-06 23:11 | 31.39304 | -78.36168 | 37109 ft | 421 kts | 357° |
| 2026-05-06 23:11 | 31.45076 | -78.35218 | 37107 ft | 421 kts | 358° |
| 2026-05-06 23:12 | 31.50920 | -78.34245 | 37095 ft | 421 kts | 358° |
| 2026-05-06 23:12 | 31.56693 | -78.33290 | 37107 ft | 422 kts | 357° |
| 2026-05-06 23:13 | 31.62521 | -78.32323 | 37092 ft | 422 kts | 357° |
| 2026-05-06 23:13 | 31.68349 | -78.31353 | 37085 ft | 423 kts | 357° |
| 2026-05-06 23:14 | 31.74184 | -78.30388 | 37088 ft | 423 kts | 357° |
| 2026-05-06 23:14 | 31.80019 | -78.29421 | 37084 ft | 423 kts | 357° |
| 2026-05-06 23:15 | 31.85824 | -78.28460 | 37096 ft | 424 kts | 357° |
| 2026-05-06 23:15 | 31.91672 | -78.27489 | 37090 ft | 424 kts | 357° |
| 2026-05-06 23:16 | 31.97523 | -78.26503 | 37088 ft | 425 kts | 357° |
| 2026-05-06 23:16 | 32.03378 | -78.25505 | 37086 ft | 426 kts | 358° |
| 2026-05-06 23:17 | 32.09242 | -78.24311 | 37106 ft | 428 kts | 359° |
| 2026-05-06 23:17 | 32.15106 | -78.22993 | 37097 ft | 429 kts | 359° |
| 2026-05-06 23:18 | 32.20973 | -78.21683 | 37094 ft | 429 kts | 359° |
| 2026-05-06 23:18 | 32.26808 | -78.20411 | 37092 ft | 429 kts | 359° |
| 2026-05-06 23:19 | 32.32685 | -78.19151 | 37079 ft | 429 kts | 359° |
| 2026-05-06 23:19 | 32.38563 | -78.17886 | 37095 ft | 429 kts | 359° |
| 2026-05-06 23:20 | 32.44446 | -78.16604 | 37088 ft | 429 kts | 359° |
| 2026-05-06 23:20 | 32.50315 | -78.15329 | 37083 ft | 429 kts | 359° |
| 2026-05-06 23:21 | 32.56156 | -78.14060 | 37082 ft | 429 kts | 359° |
| 2026-05-06 23:21 | 32.62031 | -78.12789 | 37102 ft | 429 kts | 358° |
| 2026-05-06 23:22 | 32.67899 | -78.11514 | 37090 ft | 429 kts | 358° |
| 2026-05-06 23:22 | 32.73770 | -78.10229 | 37082 ft | 429 kts | 358° |
| 2026-05-06 23:23 | 32.79647 | -78.08943 | 37078 ft | 429 kts | 358° |
| 2026-05-06 23:23 | 32.85485 | -78.07665 | 37076 ft | 429 kts | 358° |
| 2026-05-06 23:24 | 32.91353 | -78.06386 | 37068 ft | 428 kts | 358° |
| 2026-05-06 23:24 | 32.97221 | -78.05094 | 37068 ft | 429 kts | 359° |
| 2026-05-06 23:25 | 33.03102 | -78.03800 | 37067 ft | 429 kts | 358° |
| 2026-05-06 23:25 | 33.08968 | -78.02511 | 37068 ft | 429 kts | 358° |
| 2026-05-06 23:26 | 33.14807 | -78.01223 | 37093 ft | 429 kts | 358° |
| 2026-05-06 23:26 | 33.20677 | -77.99930 | 37083 ft | 428 kts | 358° |
| 2026-05-06 23:27 | 33.26550 | -77.98632 | 37069 ft | 428 kts | 358° |
| 2026-05-06 23:27 | 33.32407 | -77.97331 | 37066 ft | 428 kts | 358° |
| 2026-05-06 23:28 | 33.38271 | -77.96032 | 37086 ft | 428 kts | 358° |
| 2026-05-06 23:28 | 33.44137 | -77.94731 | 37075 ft | 428 kts | 358° |
| 2026-05-06 23:29 | 33.49980 | -77.93429 | 37070 ft | 427 kts | 358° |
| 2026-05-06 23:29 | 33.55815 | -77.92132 | 37066 ft | 426 kts | 358° |
| 2026-05-06 23:30 | 33.61650 | -77.90835 | 37062 ft | 426 kts | 358° |
| 2026-05-06 23:30 | 33.67448 | -77.89545 | 37048 ft | 424 kts | 358° |
| 2026-05-06 23:31 | 33.73219 | -77.88248 | 37056 ft | 424 kts | 358° |
| 2026-05-06 23:31 | 33.79038 | -77.86948 | 37045 ft | 424 kts | 358° |
| 2026-05-06 23:32 | 33.84848 | -77.85569 | 37037 ft | 427 kts | 359° |
| 2026-05-06 23:32 | 33.90672 | -77.84071 | 37060 ft | 427 kts | 359° |
| 2026-05-06 23:33 | 33.96483 | -77.82575 | 37055 ft | 426 kts | 359° |
| 2026-05-06 23:33 | 34.02286 | -77.81110 | 37054 ft | 426 kts | 359° |
| 2026-05-06 23:34 | 34.08054 | -77.79657 | 37048 ft | 425 kts | 359° |
| 2026-05-06 23:34 | 34.13856 | -77.78190 | 37062 ft | 425 kts | 359° |
| 2026-05-06 23:35 | 34.19669 | -77.76718 | 37052 ft | 425 kts | 359° |
| 2026-05-06 23:35 | 34.25460 | -77.75250 | 37039 ft | 425 kts | 359° |
| 2026-05-06 23:36 | 34.31215 | -77.73784 | 37034 ft | 425 kts | 359° |
| 2026-05-06 23:36 | 34.37018 | -77.72311 | 37025 ft | 425 kts | 359° |
| 2026-05-06 23:37 | 34.42829 | -77.70839 | 37041 ft | 425 kts | 358° |
| 2026-05-06 23:37 | 34.48626 | -77.69369 | 37031 ft | 426 kts | 359° |
| 2026-05-06 23:38 | 34.53457 | -77.68135 | 37025 ft | 426 kts | 358° |
| 2026-05-06 23:38 | 34.56353 | -77.67202 | 37017 ft | 440 kts | 7° |
| 2026-05-06 23:38 | 34.60107 | -77.65094 | 37012 ft | 452 kts | 13° |
| 2026-05-06 23:39 | 34.65759 | -77.61708 | 37024 ft | 453 kts | 13° |
| 2026-05-06 23:39 | 34.70465 | -77.58898 | 37001 ft | 453 kts | 13° |
| 2026-05-06 23:40 | 34.76113 | -77.55524 | 37018 ft | 453 kts | 13° |
| 2026-05-06 23:40 | 34.81760 | -77.52140 | 37016 ft | 452 kts | 13° |
| 2026-05-06 23:41 | 34.87412 | -77.48750 | 37033 ft | 452 kts | 13° |
| 2026-05-06 23:41 | 34.93063 | -77.45353 | 37014 ft | 453 kts | 13° |
| 2026-05-06 23:42 | 34.98718 | -77.41944 | 37007 ft | 453 kts | 13° |
| 2026-05-06 23:42 | 35.04380 | -77.38539 | 37005 ft | 454 kts | 13° |
| 2026-05-06 23:43 | 35.10053 | -77.35122 | 37013 ft | 454 kts | 13° |
| 2026-05-06 23:43 | 35.15690 | -77.31713 | 36987 ft | 456 kts | 13° |
| 2026-05-06 23:44 | 35.21379 | -77.28266 | 36980 ft | 456 kts | 13° |
| 2026-05-06 23:44 | 35.27068 | -77.24818 | 36980 ft | 457 kts | 13° |
| 2026-05-06 23:45 | 35.32761 | -77.21363 | 36991 ft | 456 kts | 13° |
| 2026-05-06 23:45 | 35.38447 | -77.17904 | 37000 ft | 455 kts | 13° |
| 2026-05-06 23:46 | 35.44115 | -77.14453 | 37001 ft | 454 kts | 13° |
| 2026-05-06 23:46 | 35.49774 | -77.11001 | 37006 ft | 453 kts | 13° |
| 2026-05-06 23:47 | 35.55398 | -77.07563 | 37021 ft | 453 kts | 13° |
| 2026-05-06 23:47 | 35.61055 | -77.04096 | 37002 ft | 454 kts | 13° |
| 2026-05-06 23:48 | 35.66723 | -77.00621 | 36990 ft | 455 kts | 13° |
| 2026-05-06 23:48 | 35.72385 | -76.97147 | 36984 ft | 455 kts | 13° |
| 2026-05-06 23:49 | 35.78061 | -76.93652 | 36981 ft | 456 kts | 13° |
| 2026-05-06 23:49 | 35.83746 | -76.90154 | 36973 ft | 457 kts | 13° |
| 2026-05-06 23:50 | 35.89408 | -76.86668 | 36968 ft | 458 kts | 13° |
| 2026-05-06 23:50 | 35.98038 | -76.81833 | 36987 ft | 448 kts | 8° |
| 2026-05-06 23:51 | 36.03822 | -76.78990 | 37005 ft | 447 kts | 8° |
| 2026-05-06 23:51 | 36.09604 | -76.76108 | 36993 ft | 449 kts | 9° |
| 2026-05-06 23:52 | 36.15386 | -76.73125 | 36985 ft | 450 kts | 9° |
| 2026-05-06 23:52 | 36.21159 | -76.70105 | 36976 ft | 450 kts | 9° |
| 2026-05-06 23:53 | 36.26914 | -76.67101 | 36987 ft | 450 kts | 9° |
| 2026-05-06 23:53 | 36.32704 | -76.64097 | 36968 ft | 451 kts | 9° |
| 2026-05-06 23:54 | 36.38501 | -76.61081 | 36957 ft | 452 kts | 9° |
| 2026-05-06 23:54 | 36.44303 | -76.58060 | 36953 ft | 452 kts | 9° |
| 2026-05-06 23:55 | 36.50058 | -76.55056 | 36945 ft | 453 kts | 9° |
| 2026-05-06 23:55 | 36.55870 | -76.52006 | 36933 ft | 453 kts | 9° |
| 2026-05-06 23:56 | 36.61684 | -76.48955 | 36928 ft | 453 kts | 9° |
| 2026-05-06 23:56 | 36.67499 | -76.45913 | 36938 ft | 452 kts | 9° |
| 2026-05-06 23:57 | 36.73303 | -76.42874 | 36974 ft | 452 kts | 9° |
| 2026-05-06 23:57 | 36.79069 | -76.39829 | 36962 ft | 452 kts | 9° |
| 2026-05-06 23:58 | 36.84854 | -76.36770 | 36955 ft | 452 kts | 9° |
| 2026-05-06 23:58 | 36.90652 | -76.33701 | 36941 ft | 452 kts | 9° |
| 2026-05-06 23:59 | 36.96448 | -76.30636 | 36930 ft | 452 kts | 9° |
| 2026-05-06 23:59 | 37.02244 | -76.27570 | 36921 ft | 452 kts | 9° |
| 2026-05-07 00:00 | 37.08048 | -76.24495 | 36900 ft | 453 kts | 9° |
| 2026-05-07 00:00 | 37.12875 | -76.21928 | 36907 ft | 453 kts | 9° |
| 2026-05-07 00:01 | 37.19644 | -76.18313 | 36931 ft | 454 kts | 9° |
| 2026-05-07 00:01 | 37.25511 | -76.15185 | 36918 ft | 455 kts | 9° |
| 2026-05-07 00:02 | 37.31313 | -76.12089 | 36919 ft | 455 kts | 10° |
| 2026-05-07 00:02 | 37.37147 | -76.08965 | 36976 ft | 455 kts | 9° |
| 2026-05-07 00:03 | 37.42983 | -76.05831 | 36942 ft | 456 kts | 10° |
| 2026-05-07 00:03 | 37.48784 | -76.02710 | 36932 ft | 457 kts | 10° |
| 2026-05-07 00:04 | 37.54636 | -75.99567 | 36922 ft | 457 kts | 10° |
| 2026-05-07 00:04 | 37.60478 | -75.96329 | 36917 ft | 466 kts | 15° |
| 2026-05-07 00:05 | 37.63283 | -75.94140 | 36918 ft | 477 kts | 21° |
| 2026-05-07 00:05 | 37.66060 | -75.91831 | 36914 ft | 477 kts | 21° |
| 2026-05-07 00:05 | 37.71606 | -75.87228 | 36916 ft | 477 kts | 20° |
| 2026-05-07 00:06 | 37.77159 | -75.82632 | 36920 ft | 477 kts | 20° |
| 2026-05-07 00:06 | 37.82693 | -75.78042 | 36912 ft | 478 kts | 21° |
| 2026-05-07 00:07 | 37.88253 | -75.73412 | 36921 ft | 479 kts | 21° |
| 2026-05-07 00:07 | 37.93820 | -75.68762 | 36931 ft | 479 kts | 21° |
| 2026-05-07 00:08 | 37.99389 | -75.64106 | 36929 ft | 479 kts | 21° |
| 2026-05-07 00:08 | 38.04958 | -75.59444 | 36915 ft | 479 kts | 21° |
| 2026-05-07 00:09 | 38.10529 | -75.54765 | 36904 ft | 480 kts | 21° |
| 2026-05-07 00:09 | 38.16109 | -75.50085 | 36897 ft | 481 kts | 21° |
| 2026-05-07 00:10 | 38.21661 | -75.45416 | 36932 ft | 481 kts | 21° |
| 2026-05-07 00:10 | 38.27398 | -75.41338 | 36891 ft | 458 kts | 7° |
| 2026-05-07 00:11 | 38.33388 | -75.39550 | 36897 ft | 436 kts | 355° |
| 2026-05-07 00:11 | 38.39376 | -75.38300 | 36903 ft | 436 kts | 356° |
| 2026-05-07 00:12 | 38.45381 | -75.37030 | 36915 ft | 437 kts | 355° |
| 2026-05-07 00:12 | 38.51368 | -75.35759 | 36901 ft | 436 kts | 355° |
| 2026-05-07 00:13 | 38.57366 | -75.34484 | 36903 ft | 437 kts | 355° |
| 2026-05-07 00:13 | 38.63375 | -75.33199 | 36905 ft | 437 kts | 355° |
| 2026-05-07 00:14 | 38.69378 | -75.31915 | 36925 ft | 438 kts | 355° |
| 2026-05-07 00:14 | 38.75398 | -75.30574 | 36919 ft | 445 kts | 359° |
| 2026-05-07 00:15 | 38.78402 | -75.29288 | 36916 ft | 467 kts | 11° |
| 2026-05-07 00:15 | 38.81288 | -75.27348 | 36910 ft | 477 kts | 15° |
| 2026-05-07 00:15 | 38.87100 | -75.23196 | 36954 ft | 478 kts | 15° |
| 2026-05-07 00:16 | 38.92920 | -75.19041 | 36908 ft | 478 kts | 15° |
| 2026-05-07 00:16 | 38.98757 | -75.14892 | 36889 ft | 479 kts | 15° |
| 2026-05-07 00:17 | 39.04493 | -75.10804 | 36887 ft | 481 kts | 15° |
| 2026-05-07 00:17 | 39.10353 | -75.06607 | 36915 ft | 482 kts | 14° |
| 2026-05-07 00:18 | 39.16217 | -75.02406 | 36891 ft | 482 kts | 15° |
| 2026-05-07 00:18 | 39.22059 | -74.98226 | 36911 ft | 482 kts | 15° |
| 2026-05-07 00:19 | 39.27855 | -74.93744 | 36956 ft | 495 kts | 21° |
| 2026-05-07 00:19 | 39.33482 | -74.88619 | 36870 ft | 495 kts | 21° |
| 2026-05-07 00:20 | 39.38161 | -74.84346 | 36872 ft | 496 kts | 21° |
| 2026-05-07 00:20 | 39.43808 | -74.79195 | 36879 ft | 497 kts | 21° |
| 2026-05-07 00:21 | 39.49473 | -74.74019 | 36916 ft | 498 kts | 21° |
| 2026-05-07 00:21 | 39.55113 | -74.68852 | 36904 ft | 499 kts | 21° |
| 2026-05-07 00:22 | 39.60797 | -74.63626 | 36899 ft | 499 kts | 21° |
| 2026-05-07 00:22 | 39.66441 | -74.58437 | 36894 ft | 500 kts | 21° |
| 2026-05-07 00:23 | 39.72120 | -74.53209 | 36891 ft | 500 kts | 21° |
| 2026-05-07 00:23 | 39.77802 | -74.47952 | 36890 ft | 500 kts | 21° |
| 2026-05-07 00:24 | 39.83433 | -74.42732 | 36895 ft | 500 kts | 21° |
| 2026-05-07 00:24 | 39.89106 | -74.37475 | 36865 ft | 499 kts | 21° |
| 2026-05-07 00:25 | 39.94769 | -74.32213 | 36871 ft | 501 kts | 21° |
| 2026-05-07 00:25 | 40.00422 | -74.26888 | 36882 ft | 502 kts | 22° |
| 2026-05-07 00:26 | 40.06064 | -74.21489 | 36900 ft | 503 kts | 22° |
| 2026-05-07 00:26 | 40.11704 | -74.16070 | 36873 ft | 502 kts | 22° |
| 2026-05-07 00:27 | 40.17309 | -74.10702 | 36872 ft | 503 kts | 22° |
| 2026-05-07 00:27 | 40.22952 | -74.05300 | 36870 ft | 503 kts | 22° |
| 2026-05-07 00:28 | 40.28609 | -73.99884 | 36826 ft | 503 kts | 22° |
| 2026-05-07 00:28 | 40.34254 | -73.94455 | 36843 ft | 503 kts | 23° |
| 2026-05-07 00:29 | 40.37033 | -73.91763 | 36836 ft | 492 kts | 23° |
| 2026-05-07 00:29 | 40.39766 | -73.89099 | 36538 ft | 486 kts | 22° |
| 2026-05-07 00:30 | 40.47907 | -73.81231 | 35074 ft | 485 kts | 22° |
| 2026-05-07 00:30 | 40.50626 | -73.78615 | 34526 ft | 486 kts | 23° |
| 2026-05-07 00:30 | 40.55924 | -73.73491 | 33429 ft | 487 kts | 24° |
| 2026-05-07 00:31 | 40.58680 | -73.70809 | 32819 ft | 487 kts | 24° |
| 2026-05-07 00:31 | 40.61361 | -73.68195 | 32292 ft | 486 kts | 24° |
| 2026-05-07 00:31 | 40.64049 | -73.65571 | 31711 ft | 486 kts | 25° |
| 2026-05-07 00:31 | 40.66767 | -73.62913 | 31080 ft | 485 kts | 25° |
| 2026-05-07 00:32 | 40.69482 | -73.60261 | 30476 ft | 486 kts | 26° |
| 2026-05-07 00:32 | 40.72202 | -73.57605 | 29878 ft | 486 kts | 26° |
| 2026-05-07 00:32 | 40.74921 | -73.54950 | 29189 ft | 487 kts | 26° |
| 2026-05-07 00:32 | 40.77646 | -73.52286 | 28511 ft | 488 kts | 26° |
| 2026-05-07 00:33 | 40.80388 | -73.49599 | 27901 ft | 489 kts | 26° |
| 2026-05-07 00:33 | 40.83127 | -73.46909 | 27251 ft | 491 kts | 26° |
| 2026-05-07 00:33 | 40.85791 | -73.44036 | 26909 ft | 502 kts | 35° |
| 2026-05-07 00:33 | 40.88199 | -73.40653 | 26555 ft | 504 kts | 40° |
| 2026-05-07 00:34 | 40.90524 | -73.37219 | 26290 ft | 500 kts | 40° |
| 2026-05-07 00:34 | 40.92836 | -73.33788 | 26036 ft | 498 kts | 40° |
| 2026-05-07 00:34 | 40.95108 | -73.30410 | 25780 ft | 496 kts | 40° |
| 2026-05-07 00:34 | 40.97401 | -73.27002 | 25563 ft | 494 kts | 40° |
| 2026-05-07 00:35 | 40.99681 | -73.23612 | 25260 ft | 492 kts | 40° |
| 2026-05-07 00:35 | 41.01959 | -73.20231 | 25012 ft | 491 kts | 40° |
| 2026-05-07 00:35 | 41.04234 | -73.16857 | 24753 ft | 489 kts | 40° |
| 2026-05-07 00:35 | 41.06496 | -73.13495 | 24510 ft | 487 kts | 40° |
| 2026-05-07 00:36 | 41.08747 | -73.10143 | 24251 ft | 486 kts | 40° |
| 2026-05-07 00:36 | 41.10986 | -73.06798 | 24005 ft | 484 kts | 40° |
| 2026-05-07 00:36 | 41.13215 | -73.03462 | 23752 ft | 482 kts | 40° |
| 2026-05-07 00:36 | 41.15435 | -73.00133 | 23508 ft | 480 kts | 40° |
| 2026-05-07 00:37 | 41.17640 | -72.96825 | 23230 ft | 477 kts | 40° |
| 2026-05-07 00:37 | 41.19825 | -72.93520 | 22955 ft | 477 kts | 44° |
| 2026-05-07 00:37 | 41.21718 | -72.89936 | 22789 ft | 483 kts | 54° |
| 2026-05-07 00:37 | 41.23293 | -72.85957 | 22670 ft | 485 kts | 58° |
| 2026-05-07 00:38 | 41.24817 | -72.81963 | 22409 ft | 483 kts | 58° |
| 2026-05-07 00:38 | 41.26333 | -72.77989 | 22147 ft | 480 kts | 59° |
| 2026-05-07 00:38 | 41.27836 | -72.74054 | 21888 ft | 477 kts | 59° |
| 2026-05-07 00:38 | 41.29337 | -72.70126 | 21625 ft | 474 kts | 59° |
| 2026-05-07 00:39 | 41.30827 | -72.66227 | 21425 ft | 470 kts | 59° |
| 2026-05-07 00:39 | 41.32300 | -72.62357 | 21174 ft | 467 kts | 60° |
| 2026-05-07 00:39 | 41.33758 | -72.58505 | 20897 ft | 464 kts | 60° |
| 2026-05-07 00:39 | 41.35189 | -72.54721 | 20857 ft | 462 kts | 60° |
| 2026-05-07 00:40 | 41.36639 | -72.50901 | 20869 ft | 462 kts | 60° |
| 2026-05-07 00:40 | 41.38093 | -72.47084 | 20868 ft | 462 kts | 60° |
| 2026-05-07 00:40 | 41.39550 | -72.43258 | 20869 ft | 462 kts | 60° |
| 2026-05-07 00:40 | 41.40997 | -72.39437 | 20868 ft | 462 kts | 60° |
| 2026-05-07 00:41 | 41.42438 | -72.35609 | 20867 ft | 462 kts | 60° |
| 2026-05-07 00:41 | 41.43879 | -72.31765 | 20866 ft | 462 kts | 60° |
| 2026-05-07 00:41 | 41.45316 | -72.27926 | 20861 ft | 462 kts | 60° |
| 2026-05-07 00:41 | 41.46755 | -72.24080 | 20842 ft | 462 kts | 60° |
| 2026-05-07 00:42 | 41.48190 | -72.20248 | 20846 ft | 462 kts | 60° |
| 2026-05-07 00:42 | 41.49599 | -72.16467 | 20602 ft | 461 kts | 61° |
| 2026-05-07 00:42 | 41.51008 | -72.12630 | 20360 ft | 458 kts | 62° |
| 2026-05-07 00:42 | 41.52398 | -72.08809 | 20114 ft | 455 kts | 62° |
| 2026-05-07 00:43 | 41.53774 | -72.05014 | 19872 ft | 453 kts | 62° |
| 2026-05-07 00:43 | 41.55141 | -72.01241 | 19632 ft | 450 kts | 62° |
| 2026-05-07 00:43 | 41.56462 | -71.97457 | 19399 ft | 448 kts | 65° |
| 2026-05-07 00:43 | 41.57675 | -71.93642 | 19163 ft | 445 kts | 67° |
| 2026-05-07 00:44 | 41.58806 | -71.89808 | 18915 ft | 443 kts | 69° |
| 2026-05-07 00:44 | 41.59899 | -71.85969 | 18696 ft | 440 kts | 70° |
| 2026-05-07 00:44 | 41.60976 | -71.82154 | 18476 ft | 437 kts | 70° |
| 2026-05-07 00:44 | 41.62058 | -71.78361 | 18257 ft | 435 kts | 70° |
| 2026-05-07 00:45 | 41.63145 | -71.74602 | 17839 ft | 431 kts | 70° |
| 2026-05-07 00:45 | 41.64241 | -71.70867 | 17417 ft | 428 kts | 69° |
| 2026-05-07 00:45 | 41.65318 | -71.67223 | 17103 ft | 425 kts | 69° |
| 2026-05-07 00:45 | 41.66399 | -71.63564 | 16842 ft | 417 kts | 69° |
| 2026-05-07 00:46 | 41.67451 | -71.59998 | 16590 ft | 407 kts | 69° |
| 2026-05-07 00:46 | 41.68480 | -71.56509 | 16337 ft | 398 kts | 69° |
| 2026-05-07 00:46 | 41.69484 | -71.53096 | 16067 ft | 391 kts | 69° |
| 2026-05-07 00:46 | 41.70473 | -71.49712 | 15837 ft | 388 kts | 70° |
| 2026-05-07 00:47 | 41.71452 | -71.46348 | 15625 ft | 387 kts | 70° |
| 2026-05-07 00:47 | 41.72460 | -71.43059 | 15284 ft | 385 kts | 64° |
| 2026-05-07 00:47 | 41.73758 | -71.39936 | 14964 ft | 383 kts | 59° |
| 2026-05-07 00:47 | 41.75082 | -71.36848 | 14643 ft | 381 kts | 59° |
| 2026-05-07 00:48 | 41.76400 | -71.33772 | 14314 ft | 379 kts | 59° |
| 2026-05-07 00:48 | 41.77707 | -71.30709 | 13994 ft | 377 kts | 59° |
| 2026-05-07 00:48 | 41.79006 | -71.27667 | 13675 ft | 375 kts | 59° |
| 2026-05-07 00:48 | 41.80302 | -71.24630 | 13329 ft | 374 kts | 59° |
| 2026-05-07 00:49 | 41.81583 | -71.21617 | 13012 ft | 371 kts | 59° |
| 2026-05-07 00:49 | 41.82854 | -71.18615 | 12690 ft | 369 kts | 59° |
| 2026-05-07 00:49 | 41.84119 | -71.15632 | 12428 ft | 365 kts | 59° |
| 2026-05-07 00:49 | 41.85364 | -71.12700 | 12227 ft | 358 kts | 59° |
| 2026-05-07 00:50 | 41.86595 | -71.09815 | 11941 ft | 354 kts | 59° |
| 2026-05-07 00:50 | 41.87819 | -71.06984 | 11744 ft | 348 kts | 58° |
| 2026-05-07 00:50 | 41.89035 | -71.04194 | 11600 ft | 347 kts | 58° |
| 2026-05-07 00:50 | 41.90251 | -71.01399 | 11446 ft | 346 kts | 58° |
| 2026-05-07 00:51 | 41.91457 | -70.98613 | 11284 ft | 345 kts | 59° |
| 2026-05-07 00:51 | 41.92655 | -70.95828 | 11134 ft | 344 kts | 59° |
| 2026-05-07 00:51 | 41.93847 | -70.93054 | 10976 ft | 342 kts | 59° |
| 2026-05-07 00:51 | 41.95018 | -70.90330 | 10837 ft | 341 kts | 59° |
| 2026-05-07 00:52 | 41.96221 | -70.87528 | 10650 ft | 340 kts | 59° |
| 2026-05-07 00:52 | 41.97407 | -70.84758 | 10510 ft | 343 kts | 59° |
| 2026-05-07 00:52 | 41.98584 | -70.82008 | 10361 ft | 343 kts | 59° |
| 2026-05-07 00:52 | 41.99774 | -70.79226 | 10224 ft | 342 kts | 59° |
| 2026-05-07 00:53 | 42.00993 | -70.76503 | 10065 ft | 337 kts | 52° |
| 2026-05-07 00:53 | 42.02489 | -70.74091 | 9743 ft | 335 kts | 45° |
| 2026-05-07 00:53 | 42.04049 | -70.71759 | 9392 ft | 334 kts | 45° |
| 2026-05-07 00:53 | 42.05600 | -70.69447 | 9068 ft | 331 kts | 45° |
| 2026-05-07 00:54 | 42.07135 | -70.67158 | 8756 ft | 328 kts | 45° |
| 2026-05-07 00:54 | 42.08653 | -70.64891 | 8455 ft | 325 kts | 45° |
| 2026-05-07 00:54 | 42.10281 | -70.62877 | 8143 ft | 318 kts | 30° |
| 2026-05-07 00:54 | 42.12189 | -70.61459 | 7849 ft | 308 kts | 15° |
| 2026-05-07 00:55 | 42.14216 | -70.60679 | 7560 ft | 300 kts | 5° |
| 2026-05-07 00:55 | 42.16260 | -70.60116 | 7297 ft | 298 kts | 5° |
| 2026-05-07 00:55 | 42.18286 | -70.59553 | 6993 ft | 297 kts | 5° |
| 2026-05-07 00:55 | 42.20310 | -70.58991 | 6710 ft | 295 kts | 5° |
| 2026-05-07 00:56 | 42.22316 | -70.58431 | 6430 ft | 293 kts | 5° |
| 2026-05-07 00:56 | 42.24303 | -70.57875 | 6127 ft | 291 kts | 6° |
| 2026-05-07 00:56 | 42.26288 | -70.57317 | 5856 ft | 290 kts | 6° |
| 2026-05-07 00:56 | 42.28259 | -70.56765 | 5577 ft | 288 kts | 6° |
| 2026-05-07 00:57 | 42.30224 | -70.56330 | 5305 ft | 282 kts | 355° |
| 2026-05-07 00:57 | 42.32110 | -70.56582 | 5061 ft | 271 kts | 338° |
| 2026-05-07 00:57 | 42.33821 | -70.57533 | 5003 ft | 261 kts | 322° |
| 2026-05-07 00:57 | 42.35232 | -70.59028 | 5009 ft | 255 kts | 309° |
| 2026-05-07 00:58 | 42.36505 | -70.60716 | 5019 ft | 257 kts | 309° |
| 2026-05-07 00:58 | 42.37761 | -70.62354 | 5007 ft | 244 kts | 310° |
| 2026-05-07 00:58 | 42.38961 | -70.63910 | 5007 ft | 237 kts | 310° |
| 2026-05-07 00:58 | 42.40148 | -70.65461 | 5007 ft | 237 kts | 309° |
| 2026-05-07 00:59 | 42.42506 | -70.68560 | 5000 ft | 236 kts | 309° |
| 2026-05-07 00:59 | 42.43680 | -70.70107 | 5000 ft | 235 kts | 309° |
| 2026-05-07 00:59 | 42.44858 | -70.71658 | 4999 ft | 236 kts | 309° |
| 2026-05-07 01:00 | 42.46021 | -70.73187 | 4997 ft | 228 kts | 309° |
| 2026-05-07 01:00 | 42.47151 | -70.74670 | 4998 ft | 225 kts | 309° |
| 2026-05-07 01:00 | 42.48273 | -70.76150 | 4998 ft | 225 kts | 309° |
| 2026-05-07 01:00 | 42.49395 | -70.77636 | 5000 ft | 225 kts | 309° |
| 2026-05-07 01:01 | 42.50505 | -70.79106 | 5000 ft | 226 kts | 309° |
| 2026-05-07 01:01 | 42.51679 | -70.80552 | 4995 ft | 231 kts | 320° |
| 2026-05-07 01:01 | 42.53193 | -70.81319 | 4996 ft | 236 kts | 348° |
| 2026-05-07 01:01 | 42.54843 | -70.81040 | 4998 ft | 245 kts | 13° |
| 2026-05-07 01:02 | 42.56446 | -70.80261 | 4740 ft | 245 kts | 14° |
| 2026-05-07 01:02 | 42.58049 | -70.79475 | 4449 ft | 244 kts | 14° |
| 2026-05-07 01:02 | 42.59645 | -70.78681 | 4195 ft | 243 kts | 14° |
| 2026-05-07 01:02 | 42.61221 | -70.77887 | 3930 ft | 241 kts | 14° |
| 2026-05-07 01:03 | 42.62766 | -70.77101 | 3662 ft | 240 kts | 15° |
| 2026-05-07 01:03 | 42.64303 | -70.76310 | 3524 ft | 232 kts | 15° |
| 2026-05-07 01:03 | 42.65782 | -70.75542 | 3393 ft | 224 kts | 15° |
| 2026-05-07 01:03 | 42.67222 | -70.74795 | 3161 ft | 220 kts | 15° |
| 2026-05-07 01:04 | 42.68664 | -70.74152 | 3009 ft | 213 kts | 358° |
| 2026-05-07 01:04 | 42.70023 | -70.74480 | 2996 ft | 191 kts | 320° |
| 2026-05-07 01:04 | 42.70832 | -70.75760 | 2996 ft | 174 kts | 282° |
| 2026-05-07 01:04 | 42.70983 | -70.77370 | 2998 ft | 171 kts | 268° |
| 2026-05-07 01:05 | 42.70972 | -70.78971 | 2996 ft | 171 kts | 266° |
| 2026-05-07 01:05 | 42.70960 | -70.79516 | 2996 ft | 171 kts | 264° |
| 2026-05-07 01:05 | 42.70157 | -70.81928 | 2992 ft | 170 kts | 237° |
| 2026-05-07 01:05 | 42.69498 | -70.83187 | 2983 ft | 159 kts | 236° |
| 2026-05-07 01:06 | 42.69074 | -70.83985 | 2989 ft | 156 kts | 235° |
| 2026-05-07 01:06 | 42.68028 | -70.85039 | 2999 ft | 162 kts | 204° |
| 2026-05-07 01:06 | 42.66979 | -70.85567 | 2992 ft | 160 kts | 209° |
| 2026-05-07 01:06 | 42.65943 | -70.86136 | 2998 ft | 161 kts | 208° |
| 2026-05-07 01:07 | 42.64893 | -70.86676 | 3002 ft | 162 kts | 207° |
| 2026-05-07 01:07 | 42.63837 | -70.87202 | 2991 ft | 162 kts | 208° |
| 2026-05-07 01:07 | 42.62776 | -70.87724 | 2992 ft | 162 kts | 207° |
| 2026-05-07 01:07 | 42.61720 | -70.88242 | 2999 ft | 163 kts | 207° |
| 2026-05-07 01:08 | 42.60664 | -70.88758 | 2999 ft | 163 kts | 207° |
| 2026-05-07 01:08 | 42.59589 | -70.89283 | 2995 ft | 164 kts | 207° |
| 2026-05-07 01:08 | 42.58515 | -70.89806 | 2997 ft | 162 kts | 207° |
| 2026-05-07 01:08 | 42.57458 | -70.90321 | 2999 ft | 162 kts | 207° |
| 2026-05-07 01:09 | 42.56390 | -70.90843 | 2996 ft | 164 kts | 207° |
| 2026-05-07 01:09 | 42.55319 | -70.91365 | 2997 ft | 165 kts | 207° |
| 2026-05-07 01:09 | 42.54239 | -70.91891 | 2997 ft | 164 kts | 207° |
| 2026-05-07 01:09 | 42.53132 | -70.92432 | 2998 ft | 169 kts | 207° |
| 2026-05-07 01:10 | 42.52062 | -70.92948 | 2958 ft | 159 kts | 208° |
| 2026-05-07 01:10 | 42.51040 | -70.93445 | 2858 ft | 153 kts | 208° |
| 2026-05-07 01:10 | 42.50053 | -70.93925 | 2669 ft | 149 kts | 208° |
| 2026-05-07 01:10 | 42.49085 | -70.94396 | 2476 ft | 143 kts | 208° |
| 2026-05-07 01:11 | 42.48187 | -70.94831 | 2298 ft | 134 kts | 208° |
| 2026-05-07 01:11 | 42.47324 | -70.95251 | 2121 ft | 130 kts | 209° |
| 2026-05-07 01:11 | 42.46476 | -70.95664 | 1958 ft | 129 kts | 208° |
| 2026-05-07 01:11 | 42.45630 | -70.96076 | 1781 ft | 129 kts | 208° |
| 2026-05-07 01:12 | 42.44791 | -70.96484 | 1616 ft | 128 kts | 206° |
| 2026-05-07 01:12 | 42.43944 | -70.96895 | 1443 ft | 129 kts | 204° |
| 2026-05-07 01:12 | 42.43096 | -70.97307 | 1261 ft | 129 kts | 205° |
| 2026-05-07 01:12 | 42.42253 | -70.97716 | 1073 ft | 129 kts | 205° |
| 2026-05-07 01:13 | 42.41406 | -70.98127 | 898 ft | 130 kts | 203° |
| 2026-05-07 01:13 | 42.40570 | -70.98532 | 730 ft | 129 kts | 202° |
| 2026-05-07 01:13 | 42.39727 | -70.98943 | 522 ft | 128 kts | 200° |
| 2026-05-07 01:13 | 42.38890 | -70.99357 | 369 ft | 128 kts | 200° |
| 2026-05-07 01:14 | 42.38048 | -70.99757 | 195 ft | 128 kts | 200° |
| 2026-05-07 01:14 | 42.37220 | -71.00156 | 50 ft | 126 kts | 201° |
| 2026-05-07 01:14 | 42.36380 | -71.00591 | 165 ft | 143 kts | 202° |
| 2026-05-07 01:14 | 42.35349 | -71.01112 | 739 ft | 173 kts | 201° |
| 2026-05-07 01:15 | 42.34128 | -71.01646 | 1615 ft | 191 kts | 202° |
| 2026-05-07 01:15 | 42.32881 | -71.02177 | 2594 ft | 193 kts | 203° |
| 2026-05-07 01:15 | 42.31575 | -71.02632 | 2876 ft | 195 kts | 198° |
| 2026-05-07 01:15 | 42.30172 | -71.02555 | 2977 ft | 208 kts | 176° |
| 2026-05-07 01:16 | 42.28826 | -71.01682 | 3003 ft | 222 kts | 151° |
| 2026-05-07 01:16 | 42.27625 | -71.00352 | 3005 ft | 225 kts | 147° |
| 2026-05-07 01:16 | 42.26395 | -70.98900 | 3357 ft | 241 kts | 146° |
| 2026-05-07 01:16 | 42.25133 | -70.97411 | 4215 ft | 246 kts | 146° |
| 2026-05-07 01:17 | 42.23817 | -70.95875 | 4802 ft | 252 kts | 146° |
| 2026-05-07 01:17 | 42.22487 | -70.94339 | 4958 ft | 252 kts | 146° |
| 2026-05-07 01:17 | 42.21152 | -70.92800 | 4998 ft | 251 kts | 146° |
| 2026-05-07 01:17 | 42.19953 | -70.91061 | 5008 ft | 260 kts | 124° |
| 2026-05-07 01:18 | 42.19447 | -70.88699 | 5011 ft | 269 kts | 93° |
| 2026-05-07 01:18 | 42.19695 | -70.86208 | 5006 ft | 265 kts | 78° |
| 2026-05-07 01:18 | 42.20127 | -70.83833 | 5012 ft | 263 kts | 76° |
| 2026-05-07 01:18 | 42.20585 | -70.81446 | 5014 ft | 262 kts | 76° |
| 2026-05-07 01:19 | 42.21045 | -70.79069 | 5010 ft | 261 kts | 76° |
| 2026-05-07 01:19 | 42.21501 | -70.76699 | 5010 ft | 262 kts | 76° |
| 2026-05-07 01:19 | 42.21957 | -70.74336 | 5007 ft | 254 kts | 76° |
| 2026-05-07 01:19 | 42.22397 | -70.72095 | 5009 ft | 242 kts | 76° |
| 2026-05-07 01:20 | 42.22828 | -70.69919 | 4918 ft | 239 kts | 76° |
| 2026-05-07 01:20 | 42.23254 | -70.67753 | 4680 ft | 238 kts | 76° |
| 2026-05-07 01:20 | 42.23674 | -70.65603 | 4429 ft | 237 kts | 76° |
| 2026-05-07 01:20 | 42.24216 | -70.63517 | 4176 ft | 234 kts | 54° |
| 2026-05-07 01:21 | 42.24924 | -70.62452 | 4002 ft | 227 kts | 30° |
| 2026-05-07 01:21 | 42.26765 | -70.61229 | 3800 ft | 221 kts | 14° |
| 2026-05-07 01:21 | 42.28202 | -70.60495 | 3674 ft | 221 kts | 13° |
| 2026-05-07 01:21 | 42.29178 | -70.60015 | 3585 ft | 221 kts | 13° |
| 2026-05-07 01:22 | 42.31104 | -70.59076 | 3426 ft | 221 kts | 13° |
| 2026-05-07 01:22 | 42.32079 | -70.58593 | 3334 ft | 220 kts | 13° |
| 2026-05-07 01:22 | 42.33519 | -70.57889 | 3210 ft | 219 kts | 9° |
| 2026-05-07 01:22 | 42.34937 | -70.57837 | 3107 ft | 199 kts | 332° |
| 2026-05-07 01:23 | 42.36133 | -70.58637 | 3032 ft | 185 kts | 319° |
| 2026-05-07 01:23 | 42.37199 | -70.59575 | 3006 ft | 182 kts | 317° |
| 2026-05-07 01:23 | 42.38242 | -70.60541 | 3006 ft | 182 kts | 317° |
| 2026-05-07 01:23 | 42.39283 | -70.61520 | 3003 ft | 182 kts | 317° |
| 2026-05-07 01:24 | 42.40322 | -70.62489 | 2998 ft | 181 kts | 316° |
| 2026-05-07 01:24 | 42.41362 | -70.63442 | 2996 ft | 180 kts | 317° |
| 2026-05-07 01:24 | 42.42399 | -70.64389 | 2995 ft | 181 kts | 317° |
| 2026-05-07 01:24 | 42.43439 | -70.65356 | 2999 ft | 181 kts | 317° |
| 2026-05-07 01:25 | 42.44477 | -70.66324 | 2999 ft | 181 kts | 317° |
| 2026-05-07 01:25 | 42.45517 | -70.67297 | 2997 ft | 182 kts | 317° |
| 2026-05-07 01:25 | 42.46543 | -70.68256 | 2998 ft | 181 kts | 316° |
| 2026-05-07 01:25 | 42.47586 | -70.69218 | 2996 ft | 181 kts | 317° |
| 2026-05-07 01:26 | 42.48627 | -70.70171 | 2994 ft | 181 kts | 317° |
| 2026-05-07 01:26 | 42.49667 | -70.71127 | 2995 ft | 180 kts | 317° |
| 2026-05-07 01:26 | 42.50763 | -70.71988 | 2973 ft | 188 kts | 336° |
| 2026-05-07 01:26 | 42.52110 | -70.71916 | 2934 ft | 212 kts | 17° |
| 2026-05-07 01:27 | 42.53287 | -70.70595 | 3134 ft | 224 kts | 52° |
| 2026-05-07 01:27 | 42.54280 | -70.68917 | 3066 ft | 229 kts | 34° |
| 2026-05-07 01:27 | 42.55650 | -70.68052 | 3016 ft | 213 kts | 6° |
| 2026-05-07 01:27 | 42.57100 | -70.67687 | 3007 ft | 210 kts | 356° |
| 2026-05-07 01:28 | 42.58524 | -70.67719 | 2983 ft | 200 kts | 347° |
| 2026-05-07 01:28 | 42.59896 | -70.67881 | 2991 ft | 196 kts | 346° |
| 2026-05-07 01:28 | 42.61242 | -70.68059 | 2985 ft | 193 kts | 346° |
| 2026-05-07 01:28 | 42.62567 | -70.68236 | 3001 ft | 193 kts | 345° |
| 2026-05-07 01:29 | 42.63759 | -70.68831 | 2987 ft | 176 kts | 310° |
| 2026-05-07 01:29 | 42.64533 | -70.70068 | 2998 ft | 170 kts | 298° |
| 2026-05-07 01:29 | 42.65187 | -70.71409 | 2993 ft | 170 kts | 296° |
| 2026-05-07 01:29 | 42.65823 | -70.72763 | 2999 ft | 170 kts | 296° |
| 2026-05-07 01:30 | 42.66425 | -70.74137 | 2982 ft | 167 kts | 285° |
| 2026-05-07 01:30 | 42.66436 | -70.75642 | 2990 ft | 161 kts | 253° |
| 2026-05-07 01:30 | 42.66023 | -70.77066 | 3000 ft | 163 kts | 247° |
| 2026-05-07 01:30 | 42.65538 | -70.78460 | 2999 ft | 163 kts | 246° |
| 2026-05-07 01:31 | 42.65047 | -70.79850 | 3001 ft | 163 kts | 246° |
| 2026-05-07 01:31 | 42.64552 | -70.81226 | 3004 ft | 164 kts | 245° |
| 2026-05-07 01:31 | 42.64057 | -70.82619 | 3004 ft | 163 kts | 245° |
| 2026-05-07 01:31 | 42.63565 | -70.84010 | 2992 ft | 163 kts | 242° |
| 2026-05-07 01:32 | 42.62836 | -70.85211 | 3001 ft | 167 kts | 229° |
| 2026-05-07 01:32 | 42.61968 | -70.86283 | 2993 ft | 169 kts | 226° |
| 2026-05-07 01:32 | 42.61077 | -70.87332 | 2987 ft | 168 kts | 225° |
| 2026-05-07 01:32 | 42.60200 | -70.88378 | 2999 ft | 168 kts | 226° |
| 2026-05-07 01:33 | 42.59246 | -70.89288 | 2996 ft | 171 kts | 212° |
| 2026-05-07 01:33 | 42.58151 | -70.89929 | 2995 ft | 172 kts | 208° |
| 2026-05-07 01:33 | 42.57030 | -70.90512 | 2997 ft | 172 kts | 208° |
| 2026-05-07 01:33 | 42.55921 | -70.91064 | 3000 ft | 172 kts | 208° |
| 2026-05-07 01:34 | 42.54797 | -70.91617 | 2995 ft | 173 kts | 207° |
| 2026-05-07 01:34 | 42.53660 | -70.92173 | 2998 ft | 174 kts | 207° |
| 2026-05-07 01:34 | 42.52523 | -70.92726 | 2995 ft | 173 kts | 207° |
| 2026-05-07 01:34 | 42.51385 | -70.93280 | 2883 ft | 174 kts | 206° |
| 2026-05-07 01:35 | 42.50246 | -70.93833 | 2706 ft | 171 kts | 207° |
| 2026-05-07 01:35 | 42.49159 | -70.94359 | 2513 ft | 162 kts | 207° |
| 2026-05-07 01:35 | 42.48109 | -70.94870 | 2291 ft | 159 kts | 208° |
| 2026-05-07 01:35 | 42.47079 | -70.95371 | 2074 ft | 156 kts | 207° |
| 2026-05-07 01:36 | 42.46072 | -70.95861 | 1874 ft | 155 kts | 208° |
| 2026-05-07 01:36 | 42.45081 | -70.96340 | 1675 ft | 144 kts | 207° |
| 2026-05-07 01:36 | 42.44184 | -70.96774 | 1485 ft | 132 kts | 206° |
| 2026-05-07 01:36 | 42.43328 | -70.97191 | 1311 ft | 129 kts | 206° |
| 2026-05-07 01:37 | 42.42483 | -70.97603 | 1132 ft | 129 kts | 205° |
| 2026-05-07 01:37 | 42.41643 | -70.98011 | 948 ft | 128 kts | 204° |
| 2026-05-07 01:37 | 42.40816 | -70.98412 | 784 ft | 128 kts | 202° |
| 2026-05-07 01:37 | 42.39974 | -70.98818 | 625 ft | 127 kts | 201° |
| 2026-05-07 01:38 | 42.39143 | -70.99221 | 427 ft | 127 kts | 201° |
| 2026-05-07 01:38 | 42.38320 | -70.99658 | 264 ft | 127 kts | 200° |
| 2026-05-07 01:38 | 42.37485 | -71.00038 | 98 ft | 126 kts | 199° |
| 2026-05-07 01:38 | 42.36703 | -71.00406 | 27 ft | 101 kts | 200° |
| 2026-05-07 01:39 | 42.36202 | -71.00650 | 28 ft | 54 kts | 199° |
| 2026-05-07 01:39 | 42.35995 | -71.00781 | 27 ft | 23 kts | 233° |
| 2026-05-07 01:39 | 42.35903 | -71.00933 | 28 ft | 14 kts | 228° |
| 2026-05-07 01:39 | 42.35865 | -71.00989 | 29 ft | 4 kts | 229° |
| 2026-05-07 01:40 | 42.35842 | -71.01032 | 28 ft | 8 kts | 240° |
| 2026-05-07 01:40 | 42.35831 | -71.01117 | 25 ft | 11 kts | 275° |
| 2026-05-07 01:40 | 42.35841 | -71.01236 | 26 ft | 14 kts | 276° |
| 2026-05-07 01:40 | 42.35857 | -71.01385 | 26 ft | 18 kts | 281° |
| 2026-05-07 01:41 | 42.35876 | -71.01520 | 28 ft | 11 kts | 281° |
| 2026-05-07 01:41 | 42.35894 | -71.01612 | 29 ft | 10 kts | 296° |
| 2026-05-07 01:41 | 42.35959 | -71.01622 | 29 ft | 12 kts | 22° |
| 2026-05-07 01:41 | 42.36043 | -71.01575 | 27 ft | 14 kts | 21° |
| 2026-05-07 01:42 | 42.36146 | -71.01525 | 25 ft | 17 kts | 19° |
| 2026-05-07 01:42 | 42.36263 | -71.01468 | 27 ft | 18 kts | 21° |
| 2026-05-07 01:42 | 42.36338 | -71.01433 | 28 ft | 10 kts | 18° |
| 2026-05-07 01:42 | 42.36396 | -71.01475 | 31 ft | 11 kts | 300° |
| 2026-05-07 01:43 | 42.36436 | -71.01568 | 28 ft | 12 kts | 301° |
| 2026-05-07 01:43 | 42.36452 | -71.01633 | 26 ft | 7 kts | 258° |
| 2026-05-07 01:43 | 42.36430 | -71.01696 | 27 ft | 7 kts | 252° |
| 2026-05-07 01:43 | 42.36438 | -71.01768 | 30 ft | 8 kts | 286° |
| 2026-05-07 01:44 | 42.36441 | -71.01785 | 29 ft | 0 kts | 284° |